Terminal Aerodrome Forecast
Issued by NWS

Home | Current Version | Previous Version | Text Only | Print | Product List | Glossary On
Versions: 1 2 3 4 5 6 7 8 9 10 11 12 13
000
FTPA31 PHFO 291126
TAFSTU
TAF
NSTU 291126Z 2912/3012 09013KT P6SM SCT020 SCT040 SCT100
     FM300000 09010KT P6SM VCSH SCT015 BKN040 BKN100
     FM300600 VRB06KT 5SM -SHRA SCT020 BKN040 OVC090=

USA.gov is the U.S. government's official web portal to all federal, state and local government web resources and services.